createdAt,value
2019-01-26T00:01:45.601Z,-1.57
2019-01-26T00:04:18.277Z,-1.65
2019-01-26T00:06:50.985Z,-1.60
2019-01-26T00:09:23.649Z,-1.58
2019-01-26T00:11:57.491Z,-1.60
2019-01-26T00:14:30.367Z,-1.54
2019-01-26T00:17:03.052Z,-1.44
2019-01-26T00:19:35.678Z,-1.41
2019-01-26T00:22:08.458Z,-1.37
2019-01-26T00:24:41.038Z,-1.35
2019-01-26T00:27:13.857Z,-1.41
2019-01-26T00:29:46.483Z,-1.39
2019-01-26T00:32:19.091Z,-1.34
2019-01-26T00:34:51.852Z,-1.37
2019-01-26T00:37:24.436Z,-1.28
2019-01-26T00:39:57.070Z,-1.26
2019-01-26T00:42:29.763Z,-1.21
2019-01-26T00:45:02.454Z,-1.20
2019-01-26T00:47:35.256Z,-1.08
2019-01-26T00:50:09.133Z,-1.20
2019-01-26T00:52:41.799Z,-1.25
2019-01-26T00:55:14.843Z,-1.13
2019-01-26T00:57:47.592Z,-1.11
2019-01-26T01:00:20.696Z,-1.19
2019-01-26T01:02:53.386Z,-1.19
2019-01-26T01:05:25.998Z,-1.13
2019-01-26T01:07:58.621Z,-1.10
2019-01-26T01:10:31.256Z,-1.18
2019-01-26T01:13:03.933Z,-1.12
2019-01-26T01:15:36.788Z,-1.12
2019-01-26T01:18:09.431Z,-1.18
2019-01-26T01:20:42.162Z,-1.22
2019-01-26T01:23:14.861Z,-1.22
2019-01-26T01:25:47.514Z,-1.34
2019-01-26T01:28:20.101Z,-1.41
2019-01-26T01:30:52.739Z,-1.44
2019-01-26T01:33:25.456Z,-1.41
2019-01-26T01:35:58.255Z,-1.45
2019-01-26T01:38:31.031Z,-1.49
2019-01-26T01:41:03.676Z,-1.52
2019-01-26T01:43:36.276Z,-1.57
2019-01-26T01:46:08.981Z,-1.63
2019-01-26T01:48:41.769Z,-1.68
2019-01-26T01:51:14.376Z,-1.68
2019-01-26T01:53:46.978Z,-1.63
2019-01-26T01:56:19.571Z,-1.64
2019-01-26T01:58:53.070Z,-1.60
2019-01-26T02:01:25.653Z,-1.77
2019-01-26T02:03:58.294Z,-1.80
2019-01-26T02:06:30.886Z,-1.85
2019-01-26T02:09:04.177Z,-1.80
2019-01-26T02:11:36.810Z,-1.80
2019-01-26T02:14:09.671Z,-1.72
2019-01-26T02:16:42.327Z,-1.74
2019-01-26T02:19:15.011Z,-1.83
2019-01-26T02:21:47.661Z,-1.84
2019-01-26T02:24:20.251Z,-1.74
2019-01-26T02:26:52.915Z,-1.74
2019-01-26T02:29:25.600Z,-1.71
2019-01-26T02:31:58.274Z,-1.58
2019-01-26T02:34:30.907Z,-1.70
2019-01-26T02:37:03.637Z,-1.67
2019-01-26T02:39:36.266Z,-1.68
2019-01-26T02:42:09.862Z,-1.68
2019-01-26T02:44:42.595Z,-1.73
2019-01-26T02:47:15.180Z,-1.72
2019-01-26T02:49:47.766Z,-1.69
2019-01-26T02:52:20.412Z,-1.71
2019-01-26T02:54:53.062Z,-1.72
2019-01-26T02:57:25.685Z,-1.65
2019-01-26T02:59:58.274Z,-1.65
2019-01-26T03:02:30.955Z,-1.65
2019-01-26T03:05:03.622Z,-1.55
2019-01-26T03:07:36.362Z,-1.51
2019-01-26T03:10:11.230Z,-1.47
2019-01-26T03:12:43.901Z,-1.40
2019-01-26T03:15:19.580Z,-1.41
2019-01-26T03:17:52.353Z,-1.30
2019-01-26T03:20:25.116Z,-1.18
2019-01-26T03:22:57.754Z,-1.13
2019-01-26T03:25:30.410Z,-1.08
2019-01-26T03:28:03.020Z,-1.09
2019-01-26T03:30:35.773Z,-1.09
2019-01-26T03:33:08.455Z,-1.13
2019-01-26T03:35:41.134Z,-1.10
2019-01-26T03:38:13.849Z,-1.26
2019-01-26T03:40:46.466Z,-1.22
2019-01-26T03:43:19.107Z,-1.09
2019-01-26T03:45:51.700Z,-1.05
2019-01-26T03:48:24.271Z,-1.02
2019-01-26T03:50:56.837Z,-1.09
2019-01-26T03:53:29.409Z,-1.10
2019-01-26T03:56:02.008Z,-1.11
2019-01-26T03:58:34.598Z,-1.15
2019-01-26T04:01:07.304Z,-1.05
2019-01-26T04:03:39.941Z,-1.02
2019-01-26T04:06:12.634Z,-1.00
2019-01-26T04:08:45.397Z,-0.99
2019-01-26T04:11:17.994Z,-0.99
2019-01-26T04:13:50.591Z,-1.04
2019-01-26T04:16:23.264Z,-1.04
2019-01-26T04:18:55.991Z,-1.07
2019-01-26T04:21:28.758Z,-1.09
2019-01-26T04:24:01.368Z,-1.04
2019-01-26T04:26:34.060Z,-0.95
2019-01-26T04:29:06.733Z,-0.94
2019-01-26T04:31:39.361Z,-0.95
2019-01-26T04:34:12.055Z,-1.05
2019-01-26T04:36:44.719Z,-0.93
2019-01-26T04:39:17.571Z,-0.91
2019-01-26T04:41:50.174Z,-0.91
2019-01-26T04:44:22.899Z,-0.90
2019-01-26T04:46:55.578Z,-0.89
2019-01-26T04:49:28.286Z,-0.87
2019-01-26T04:52:03.943Z,-0.83
2019-01-26T04:54:36.502Z,-0.84
2019-01-26T04:57:09.245Z,-0.81
2019-01-26T04:59:41.834Z,-0.82
2019-01-26T05:02:14.537Z,-0.81
2019-01-26T05:04:47.081Z,-0.80
2019-01-26T05:07:19.743Z,-0.77
2019-01-26T05:09:52.469Z,-0.74
2019-01-26T05:12:25.103Z,-0.70
2019-01-26T05:14:57.795Z,-0.69
2019-01-26T05:17:30.678Z,-0.66
2019-01-26T05:20:03.377Z,-0.65
2019-01-26T05:22:35.992Z,-0.55
2019-01-26T05:25:09.458Z,-0.59
2019-01-26T05:27:42.481Z,-0.55
2019-01-26T05:30:19.641Z,-0.48
2019-01-26T05:32:52.211Z,-0.44
2019-01-26T05:35:24.944Z,-0.42
2019-01-26T05:37:57.641Z,-0.42
2019-01-26T05:40:30.255Z,-0.51
2019-01-26T05:43:02.850Z,-0.54
2019-01-26T05:45:35.538Z,-0.58
2019-01-26T05:48:08.257Z,-0.60
2019-01-26T05:50:40.932Z,-0.62
2019-01-26T05:53:13.696Z,-0.63
2019-01-26T05:55:46.465Z,-0.55
2019-01-26T05:58:19.086Z,-0.49
2019-01-26T06:00:51.682Z,-0.45
2019-01-26T06:03:24.328Z,-0.37
2019-01-26T06:05:57.015Z,-0.33
2019-01-26T06:08:29.632Z,-0.31
2019-01-26T06:11:02.281Z,-0.26
2019-01-26T06:13:34.960Z,-0.30
2019-01-26T06:16:07.778Z,-0.35
2019-01-26T06:18:40.355Z,-0.34
2019-01-26T06:21:12.996Z,-0.34
2019-01-26T06:23:46.841Z,-0.27
2019-01-26T06:26:19.575Z,-0.34
2019-01-26T06:28:52.218Z,-0.27
2019-01-26T06:31:24.892Z,-0.29
2019-01-26T06:33:57.575Z,-0.18
2019-01-26T06:36:30.338Z,-0.18
2019-01-26T06:39:03.881Z,-0.13
2019-01-26T06:41:36.849Z,-0.08
2019-01-26T06:44:09.623Z,-0.11
2019-01-26T06:46:42.223Z,-0.07
2019-01-26T06:49:14.948Z,0.03
2019-01-26T06:51:56.474Z,0.07
2019-01-26T06:54:29.349Z,0.05
2019-01-26T06:57:01.963Z,0.08
2019-01-26T06:59:34.604Z,0.06
2019-01-26T07:02:07.603Z,0.09
2019-01-26T07:05:07.942Z,0.12
2019-01-26T07:07:40.580Z,0.16
2019-01-26T07:10:13.859Z,0.25
2019-01-26T07:12:46.606Z,0.26
2019-01-26T07:15:20.276Z,0.28
2019-01-26T07:17:52.918Z,0.27
2019-01-26T07:20:25.669Z,0.36
2019-01-26T07:22:58.398Z,0.44
2019-01-26T07:25:30.962Z,0.58
2019-01-26T07:28:03.591Z,0.67
2019-01-26T07:30:36.326Z,0.62
2019-01-26T07:33:08.961Z,0.61
2019-01-26T07:35:41.645Z,0.61
2019-01-26T07:38:14.495Z,0.75
2019-01-26T07:40:47.073Z,0.73
2019-01-26T07:43:19.816Z,0.80
2019-01-26T07:45:52.294Z,0.88
2019-01-26T07:48:25.156Z,0.96
2019-01-26T07:50:57.744Z,1.05
2019-01-26T07:53:33.466Z,1.00
2019-01-26T07:56:06.404Z,1.23
2019-01-26T07:58:39.133Z,1.19
2019-01-26T08:01:11.832Z,1.12
2019-01-26T08:03:44.475Z,1.22
2019-01-26T08:06:17.151Z,1.22
2019-01-26T08:08:49.868Z,1.42
2019-01-26T08:11:22.530Z,1.58
2019-01-26T08:13:55.112Z,1.66
2019-01-26T08:16:27.790Z,1.75
2019-01-26T08:19:00.457Z,1.62
2019-01-26T08:21:33.104Z,1.55
2019-01-26T08:24:06.999Z,1.57
2019-01-26T08:26:39.694Z,1.67
2019-01-26T08:29:12.353Z,1.71
2019-01-26T08:31:45.034Z,1.85
2019-01-26T08:34:17.742Z,1.85
2019-01-26T08:36:50.419Z,1.86
2019-01-26T08:39:23.069Z,1.98
2019-01-26T08:41:55.869Z,1.92
2019-01-26T08:44:28.490Z,2.08
2019-01-26T08:47:02.325Z,2.26
2019-01-26T08:49:34.961Z,2.25
2019-01-26T08:52:07.905Z,2.36
2019-01-26T08:54:40.092Z,2.38
2019-01-26T08:57:12.808Z,2.44
2019-01-26T08:59:45.351Z,2.59
2019-01-26T09:02:35.468Z,2.83
2019-01-26T09:05:10.898Z,2.82
2019-01-26T09:07:43.558Z,2.71
2019-01-26T09:10:16.146Z,2.85
2019-01-26T09:12:48.773Z,2.96
2019-01-26T09:15:22.110Z,2.93
2019-01-26T09:17:54.816Z,2.78
2019-01-26T09:20:27.562Z,2.71
2019-01-26T09:23:00.193Z,2.72
2019-01-26T09:25:32.782Z,2.89
2019-01-26T09:28:06.195Z,2.97
2019-01-26T09:30:38.801Z,3.05
2019-01-26T09:33:11.509Z,3.23
2019-01-26T09:35:44.202Z,3.14
2019-01-26T09:38:16.969Z,3.24
2019-01-26T09:40:49.550Z,3.43
2019-01-26T09:43:22.239Z,3.73
2019-01-26T09:45:54.843Z,3.68
2019-01-26T09:48:27.566Z,3.76
2019-01-26T09:51:00.300Z,3.95
2019-01-26T09:53:32.947Z,4.31
2019-01-26T09:56:05.662Z,4.27
2019-01-26T09:58:38.400Z,3.81
2019-01-26T10:01:11.052Z,3.61
2019-01-26T10:03:43.768Z,3.46
2019-01-26T10:06:16.362Z,3.44
2019-01-26T10:08:48.995Z,3.47
2019-01-26T10:11:21.613Z,3.35
2019-01-26T10:13:54.259Z,3.47
2019-01-26T10:16:27.290Z,3.53
2019-01-26T10:18:59.938Z,3.47
2019-01-26T10:21:32.820Z,3.53
2019-01-26T10:24:05.980Z,3.79
2019-01-26T10:26:38.725Z,3.96
2019-01-26T10:29:11.354Z,3.96
2019-01-26T10:31:44.252Z,3.80
2019-01-26T10:34:17.158Z,3.74
2019-01-26T10:37:02.598Z,3.54
2019-01-26T10:39:35.255Z,3.44
2019-01-26T10:42:27.065Z,3.48
2019-01-26T10:44:59.768Z,3.55
2019-01-26T10:47:32.388Z,3.66
2019-01-26T10:50:05.952Z,3.69
2019-01-26T10:52:38.692Z,3.77
2019-01-26T10:55:12.408Z,3.89
2019-01-26T10:57:45.044Z,3.85
2019-01-26T11:00:18.354Z,4.00
2019-01-26T11:02:51.164Z,4.01
2019-01-26T11:05:24.061Z,4.19
2019-01-26T11:07:56.715Z,4.35
2019-01-26T11:10:29.306Z,4.28
2019-01-26T11:13:02.036Z,4.31
2019-01-26T11:15:34.612Z,4.46
2019-01-26T11:18:07.460Z,4.46
2019-01-26T11:20:40.153Z,4.26
2019-01-26T11:23:12.728Z,4.55
2019-01-26T11:25:45.393Z,4.65
2019-01-26T11:28:18.050Z,4.66
2019-01-26T11:30:50.606Z,4.34
2019-01-26T11:33:23.203Z,4.57
2019-01-26T11:35:55.935Z,4.54
2019-01-26T11:38:28.563Z,4.34
2019-01-26T11:41:01.321Z,4.38
2019-01-26T11:43:34.014Z,4.31
2019-01-26T11:46:27.693Z,4.23
2019-01-26T11:49:00.733Z,4.26
2019-01-26T11:51:49.665Z,4.35
2019-01-26T11:54:22.268Z,4.36
2019-01-26T11:57:12.543Z,4.53
2019-01-26T11:59:46.970Z,4.67
2019-01-26T12:02:29.844Z,4.67
2019-01-26T12:05:07.763Z,4.58
2019-01-26T12:07:40.458Z,4.64
2019-01-26T12:10:14.415Z,4.50
2019-01-26T12:12:47.148Z,4.42
2019-01-26T12:15:20.186Z,4.42
2019-01-26T12:17:52.844Z,4.50
2019-01-26T12:20:25.617Z,4.55
2019-01-26T12:22:58.323Z,4.53
2019-01-26T12:25:30.960Z,4.64
2019-01-26T12:28:03.631Z,4.46
2019-01-26T12:30:36.339Z,4.50
2019-01-26T12:33:09.010Z,4.45
2019-01-26T12:35:41.711Z,4.38
2019-01-26T12:38:14.784Z,4.26
2019-01-26T12:40:47.494Z,4.36
2019-01-26T12:43:20.082Z,4.44
2019-01-26T12:45:52.780Z,4.44
2019-01-26T12:48:25.422Z,4.47
2019-01-26T12:50:58.208Z,4.54
2019-01-26T12:53:30.917Z,4.67
2019-01-26T12:56:03.582Z,4.82
2019-01-26T12:58:36.255Z,4.88
2019-01-26T13:01:09.464Z,4.74
2019-01-26T13:03:42.246Z,4.82
2019-01-26T13:06:15.037Z,4.70
2019-01-26T13:08:47.627Z,4.71
2019-01-26T13:11:26.863Z,4.81
2019-01-26T13:13:59.663Z,4.97
2019-01-26T13:16:32.302Z,5.39
2019-01-26T13:19:05.350Z,5.35
2019-01-26T13:21:38.046Z,5.76
2019-01-26T13:24:11.041Z,5.74
2019-01-26T13:26:43.843Z,5.68
2019-01-26T13:29:16.412Z,5.78
2019-01-26T13:31:49.104Z,6.18
2019-01-26T13:34:21.715Z,6.56
2019-01-26T13:36:54.765Z,6.40
2019-01-26T13:39:27.388Z,6.56
2019-01-26T13:42:00.117Z,6.57
2019-01-26T13:44:32.704Z,6.37
2019-01-26T13:47:05.411Z,6.71
2019-01-26T13:49:43.979Z,6.92
2019-01-26T13:52:12.687Z,7.13
2019-01-26T13:54:45.329Z,7.03
2019-01-26T13:57:17.993Z,6.71
2019-01-26T13:59:50.632Z,6.81
2019-01-26T14:02:23.246Z,6.84
2019-01-26T14:04:55.892Z,6.71
2019-01-26T14:07:28.491Z,6.90
2019-01-26T14:10:01.099Z,6.41
2019-01-26T14:12:33.718Z,6.17
2019-01-26T14:15:07.408Z,6.34
2019-01-26T14:17:40.060Z,6.23
2019-01-26T14:20:16.967Z,6.22
2019-01-26T14:22:49.647Z,5.96
2019-01-26T14:25:22.323Z,6.10
2019-01-26T14:27:55.104Z,6.36
2019-01-26T14:30:44.544Z,6.00
2019-01-26T14:33:17.260Z,6.07
2019-01-26T14:35:49.915Z,5.89
2019-01-26T14:38:22.548Z,6.04
2019-01-26T14:40:55.204Z,6.26
2019-01-26T14:43:27.869Z,6.38
2019-01-26T14:46:00.518Z,6.38
2019-01-26T14:48:33.158Z,6.19
2019-01-26T14:51:05.912Z,6.30
2019-01-26T14:53:38.581Z,6.21
2019-01-26T14:56:11.383Z,6.17
2019-01-26T14:58:44.415Z,5.99
2019-01-26T15:01:16.997Z,6.19
2019-01-26T15:03:49.624Z,5.96
2019-01-26T15:06:22.258Z,5.79
2019-01-26T15:08:54.937Z,5.74
2019-01-26T15:11:27.572Z,5.82
2019-01-26T15:14:00.373Z,5.79
2019-01-26T15:16:34.382Z,5.99
2019-01-26T15:19:07.092Z,5.92
2019-01-26T15:21:39.720Z,5.65
2019-01-26T15:24:11.785Z,5.76
2019-01-26T15:26:44.005Z,5.83
2019-01-26T15:29:16.591Z,5.95
2019-01-26T15:31:49.234Z,5.95
2019-01-26T15:34:21.841Z,5.70
2019-01-26T15:36:54.459Z,5.65
2019-01-26T15:39:27.032Z,5.49
2019-01-26T15:42:02.299Z,5.32
2019-01-26T15:44:34.859Z,5.22
2019-01-26T15:47:07.505Z,5.04
2019-01-26T15:49:40.166Z,4.84
2019-01-26T15:52:13.134Z,4.52
2019-01-26T15:54:45.734Z,4.47
2019-01-26T15:57:18.372Z,4.37
2019-01-26T15:59:53.472Z,4.29
2019-01-26T16:02:25.266Z,3.90
2019-01-26T16:04:57.980Z,3.68
2019-01-26T16:07:30.510Z,3.43
2019-01-26T16:10:03.139Z,3.23
2019-01-26T16:12:35.738Z,3.18
2019-01-26T16:15:12.256Z,3.05
2019-01-26T16:17:44.914Z,2.67
2019-01-26T16:20:20.318Z,2.57
2019-01-26T16:22:53.146Z,2.43
2019-01-26T16:25:26.047Z,2.35
2019-01-26T16:27:58.745Z,2.25
2019-01-26T16:30:33.438Z,2.15
2019-01-26T16:33:06.140Z,2.11
2019-01-26T16:35:38.874Z,1.84
2019-01-26T16:38:11.545Z,1.76
2019-01-26T16:40:44.245Z,1.61
2019-01-26T16:43:16.965Z,1.53
2019-01-26T16:45:49.610Z,1.42
2019-01-26T16:48:22.324Z,1.26
2019-01-26T16:50:55.298Z,1.25
2019-01-26T16:53:28.041Z,1.10
2019-01-26T16:56:00.752Z,1.11
2019-01-26T16:58:33.469Z,1.17
2019-01-26T17:01:06.313Z,1.13
2019-01-26T17:03:39.870Z,0.95
2019-01-26T17:06:12.619Z,0.76
2019-01-26T17:08:45.230Z,0.62
2019-01-26T17:11:18.015Z,0.53
2019-01-26T17:13:50.632Z,0.48
2019-01-26T17:16:23.404Z,0.41
2019-01-26T17:18:56.063Z,0.25
2019-01-26T17:21:28.666Z,0.27
2019-01-26T17:24:01.266Z,0.27
2019-01-26T17:26:33.899Z,0.32
2019-01-26T17:29:06.520Z,0.36
2019-01-26T17:31:39.164Z,0.30
2019-01-26T17:34:12.062Z,0.08
2019-01-26T17:36:44.691Z,-0.10
2019-01-26T17:39:17.354Z,-0.29
2019-01-26T17:41:50.070Z,-0.38
2019-01-26T17:44:22.726Z,-0.28
2019-01-26T17:46:55.395Z,-0.27
2019-01-26T17:49:28.084Z,-0.31
2019-01-26T17:52:00.732Z,-0.32
2019-01-26T17:54:33.330Z,-0.24
2019-01-26T17:57:06.099Z,-0.27
2019-01-26T17:59:38.783Z,-0.36
2019-01-26T18:02:11.551Z,-0.34
2019-01-26T18:04:44.113Z,-0.36
2019-01-26T18:07:16.827Z,-0.52
2019-01-26T18:09:49.869Z,-0.70
2019-01-26T18:12:22.498Z,-0.73
2019-01-26T18:14:55.110Z,-0.71
2019-01-26T18:17:28.032Z,-0.71
2019-01-26T18:20:00.658Z,-0.60
2019-01-26T18:22:33.364Z,-0.48
2019-01-26T18:27:57.648Z,-0.49
2019-01-26T18:30:30.606Z,-0.42
2019-01-26T18:33:03.299Z,-0.47
2019-01-26T18:35:36.011Z,-0.70
2019-01-26T18:38:09.156Z,-0.66
2019-01-26T18:40:42.012Z,-0.60
2019-01-26T18:43:14.796Z,-0.44
2019-01-26T18:45:47.343Z,-0.27
2019-01-26T18:48:19.996Z,-0.24
2019-01-26T18:50:56.266Z,-0.44
2019-01-26T18:53:27.519Z,-0.53
2019-01-26T18:56:00.135Z,-0.51
2019-01-26T18:58:32.760Z,-0.34
2019-01-26T19:01:06.156Z,-0.31
2019-01-26T19:04:22.976Z,-0.33
2019-01-26T19:06:55.610Z,-0.22
2019-01-26T19:09:28.215Z,-0.14
2019-01-26T19:12:01.024Z,-0.04
2019-01-26T19:14:33.615Z,0.25
2019-01-26T19:17:06.468Z,0.32
2019-01-26T19:19:39.090Z,0.33
2019-01-26T19:22:11.943Z,0.33
2019-01-26T19:24:44.671Z,0.30
2019-01-26T19:27:17.270Z,0.16
2019-01-26T19:29:50.070Z,0.10
2019-01-26T19:32:22.616Z,0.04
2019-01-26T19:34:55.267Z,0.15
2019-01-26T19:37:27.927Z,0.12
2019-01-26T19:40:00.569Z,0.02
2019-01-26T19:42:33.197Z,0.05
2019-01-26T19:45:08.423Z,0.03
2019-01-26T19:47:41.140Z,-0.02
2019-01-26T19:50:18.841Z,-0.09
2019-01-26T19:52:51.493Z,-0.15
2019-01-26T19:55:24.552Z,-0.09
2019-01-26T19:57:57.241Z,-0.16
2019-01-26T20:00:32.891Z,-0.17
2019-01-26T20:03:05.754Z,-0.20
2019-01-26T20:05:38.459Z,-0.28
2019-01-26T20:08:11.239Z,-0.42
2019-01-26T20:10:43.867Z,-0.46
2019-01-26T20:13:16.611Z,-0.41
2019-01-26T20:15:49.222Z,-0.21
2019-01-26T20:18:21.969Z,0.00
2019-01-26T20:20:54.570Z,0.09
2019-01-26T20:23:27.274Z,0.12
2019-01-26T20:26:00.022Z,0.01
2019-01-26T20:28:32.743Z,-0.10
2019-01-26T20:31:05.572Z,-0.15
2019-01-26T20:33:38.330Z,-0.16
2019-01-26T20:36:11.041Z,-0.03
2019-01-26T20:38:43.603Z,-0.12
2019-01-26T20:41:16.317Z,-0.29
2019-01-26T20:43:49.037Z,-0.31
2019-01-26T20:46:21.740Z,-0.37
2019-01-26T20:48:54.390Z,-0.13
2019-01-26T20:51:27.184Z,0.06
2019-01-26T20:53:59.923Z,0.11
2019-01-26T20:56:32.589Z,0.14
2019-01-26T20:59:05.497Z,0.46
2019-01-26T21:01:38.170Z,0.61
2019-01-26T21:04:10.902Z,0.73
2019-01-26T21:06:43.566Z,0.43
2019-01-26T21:09:16.243Z,0.22
2019-01-26T21:11:48.913Z,0.33
2019-01-26T21:14:21.453Z,0.41
2019-01-26T21:16:54.185Z,0.49
2019-01-26T21:19:27.979Z,0.63
2019-01-26T21:22:00.566Z,0.65
2019-01-26T21:24:33.290Z,0.49
2019-01-26T21:27:05.954Z,0.68
2019-01-26T21:29:38.531Z,0.80
2019-01-26T21:32:11.225Z,1.08
2019-01-26T21:34:43.951Z,1.38
2019-01-26T21:37:16.588Z,1.10
2019-01-26T21:39:49.182Z,0.93
2019-01-26T21:42:21.888Z,0.85
2019-01-26T21:44:54.509Z,1.19
2019-01-26T21:47:27.340Z,1.00
2019-01-26T21:49:59.875Z,0.91
2019-01-26T21:52:32.486Z,0.85
2019-01-26T21:55:05.865Z,0.90
2019-01-26T21:57:38.581Z,0.89
2019-01-26T22:00:19.370Z,0.91
2019-01-26T22:02:52.013Z,0.83
2019-01-26T22:05:24.869Z,0.78
2019-01-26T22:07:57.474Z,0.91
2019-01-26T22:10:30.522Z,0.72
2019-01-26T22:13:03.147Z,0.76
2019-01-26T22:15:35.813Z,0.68
2019-01-26T22:18:08.647Z,0.74
2019-01-26T22:20:41.317Z,0.90
2019-01-26T22:23:13.925Z,1.10
2019-01-26T22:25:46.773Z,1.07
2019-01-26T22:28:19.433Z,0.78
2019-01-26T22:30:52.097Z,0.94
2019-01-26T22:33:24.665Z,1.01
2019-01-26T22:35:57.316Z,1.02
2019-01-26T22:38:29.875Z,1.03
2019-01-26T22:41:02.472Z,1.11
2019-01-26T22:43:35.123Z,1.32
2019-01-26T22:46:08.334Z,1.31
2019-01-26T22:48:40.991Z,1.37
2019-01-26T22:51:13.686Z,1.28
2019-01-26T22:53:46.268Z,1.13
2019-01-26T22:56:18.862Z,1.09
2019-01-26T22:58:51.452Z,1.03
2019-01-26T23:01:39.273Z,1.35
2019-01-26T23:04:52.194Z,1.25
2019-01-26T23:07:49.555Z,1.00
2019-01-26T23:10:48.412Z,0.72
2019-01-26T23:13:53.569Z,0.65
2019-01-26T23:17:33.702Z,0.81
2019-01-26T23:20:47.052Z,0.64
2019-01-26T23:23:56.241Z,0.34
2019-01-26T23:27:11.029Z,0.21
2019-01-26T23:30:22.447Z,0.20
2019-01-26T23:32:55.174Z,0.19
2019-01-26T23:35:27.770Z,0.25
2019-01-26T23:38:00.432Z,0.19
2019-01-26T23:40:33.055Z,0.28
2019-01-26T23:43:05.861Z,0.38
2019-01-26T23:45:38.437Z,0.59
2019-01-26T23:48:11.351Z,0.58
2019-01-26T23:50:44.068Z,0.97
2019-01-26T23:53:17.395Z,0.83
2019-01-26T23:55:53.038Z,0.93
2019-01-26T23:58:25.773Z,0.67
